Terminal Aerodrome Forecast
Issued by NWS Wakefield, VA

Home | Current Version | Previous Version | Text Only | Print | Product List | Glossary On
Versions: 1 2 3 4 5 6 7 8 9 10 11 12 13 14
000
FTUS41 KAKQ 292300
TAFSBY
TAF
KSBY 292325Z 3000/3024 10005KT P6SM SKC
     FM300700 VRB03KT 4SM BR BKN030
     FM301100 16005KT P6SM SCT040=

USA.gov is the U.S. government's official web portal to all federal, state and local government web resources and services.